createdAt,value
2018-04-17T00:01:06.557Z,80.20
2018-04-17T00:03:34.374Z,80.20
2018-04-17T00:06:02.950Z,82.00
2018-04-17T00:08:31.543Z,80.70
2018-04-17T00:11:00.063Z,80.20
2018-04-17T00:13:27.883Z,80.20
2018-04-17T00:15:56.438Z,80.20
2018-04-17T00:18:24.246Z,80.20
2018-04-17T00:20:52.794Z,80.40
2018-04-17T00:23:20.597Z,80.30
2018-04-17T00:25:49.179Z,80.10
2018-04-17T00:28:17.689Z,80.20
2018-04-17T00:30:45.439Z,80.20
2018-04-17T00:33:13.312Z,80.30
2018-04-17T00:35:41.134Z,80.50
2018-04-17T00:38:08.927Z,80.30
2018-04-17T00:40:37.518Z,80.90
2018-04-17T00:43:05.270Z,80.90
2018-04-17T00:45:33.841Z,80.60
2018-04-17T00:48:02.401Z,80.50
2018-04-17T00:50:30.234Z,80.30
2018-04-17T00:52:57.979Z,80.30
2018-04-17T00:55:25.731Z,79.90
2018-04-17T00:57:54.646Z,80.70
2018-04-17T01:00:22.420Z,80.00
2018-04-17T01:02:50.174Z,79.90
2018-04-17T01:05:18.048Z,79.80
2018-04-17T01:07:45.844Z,79.30
2018-04-17T01:10:13.575Z,79.20
2018-04-17T01:12:41.386Z,79.30
2018-04-17T01:15:10.471Z,79.60
2018-04-17T01:17:38.976Z,79.30
2018-04-17T01:20:06.820Z,79.10
2018-04-17T01:22:34.614Z,79.10
2018-04-17T01:25:03.122Z,81.10
2018-04-17T01:27:30.922Z,81.00
2018-04-17T01:29:58.670Z,81.00
2018-04-17T01:32:26.617Z,80.60
2018-04-17T01:34:54.441Z,80.40
2018-04-17T01:37:22.190Z,80.10
2018-04-17T01:39:49.976Z,80.20
2018-04-17T01:42:17.886Z,80.20
2018-04-17T01:44:45.615Z,80.00
2018-04-17T01:47:13.361Z,80.00
2018-04-17T01:49:41.600Z,80.10
2018-04-17T01:52:09.353Z,80.10
2018-04-17T01:54:37.120Z,80.20
2018-04-17T01:57:04.902Z,80.20
2018-04-17T01:59:32.656Z,80.30
2018-04-17T02:02:00.621Z,79.60
2018-04-17T02:04:28.460Z,79.20
2018-04-17T02:06:56.210Z,79.40
2018-04-17T02:09:24.050Z,79.60
2018-04-17T02:11:51.856Z,80.20
2018-04-17T02:14:20.475Z,80.20
2018-04-17T02:16:48.227Z,80.10
2018-04-17T02:19:16.761Z,80.80
2018-04-17T02:21:44.543Z,80.70
2018-04-17T02:24:12.318Z,82.00
2018-04-17T02:26:40.067Z,81.80
2018-04-17T02:29:07.903Z,81.70
2018-04-17T02:31:35.649Z,82.20
2018-04-17T02:34:03.389Z,82.20
2018-04-17T02:36:32.061Z,81.10
2018-04-17T02:38:59.895Z,81.10
2018-04-17T02:41:28.424Z,81.00
2018-04-17T02:43:56.974Z,80.70
2018-04-17T02:46:24.924Z,80.70
2018-04-17T02:48:52.671Z,80.80
2018-04-17T02:51:20.468Z,80.40
2018-04-17T02:53:48.723Z,79.80
2018-04-17T02:56:16.469Z,80.70
2018-04-17T02:58:44.251Z,80.80
2018-04-17T03:01:12.034Z,80.20
2018-04-17T03:03:40.261Z,80.10
2018-04-17T03:06:08.023Z,80.20
2018-04-17T03:08:36.577Z,80.20
2018-04-17T03:11:04.365Z,80.20
2018-04-17T03:13:32.883Z,80.20
2018-04-17T03:16:00.779Z,80.20
2018-04-17T03:18:28.545Z,80.00
2018-04-17T03:20:56.357Z,79.90
2018-04-17T03:23:24.967Z,80.70
2018-04-17T03:25:52.805Z,80.80
2018-04-17T03:28:20.575Z,80.00
2018-04-17T03:30:49.089Z,81.20
2018-04-17T03:33:16.876Z,81.20
2018-04-17T03:35:44.624Z,81.20
2018-04-17T03:38:12.409Z,81.70
2018-04-17T03:40:40.162Z,82.20
2018-04-17T03:43:08.045Z,82.90
2018-04-17T03:45:35.861Z,83.00
2018-04-17T03:48:03.617Z,82.80
2018-04-17T03:50:31.806Z,82.50
2018-04-17T03:52:59.618Z,82.10
2018-04-17T03:55:27.420Z,81.70
2018-04-17T03:57:56.142Z,81.20
2018-04-17T04:00:23.889Z,81.10
2018-04-17T04:02:51.776Z,80.70
2018-04-17T04:05:19.559Z,81.10
2018-04-17T04:07:47.305Z,82.00
2018-04-17T04:10:15.113Z,81.70
2018-04-17T04:12:43.615Z,81.80
2018-04-17T04:15:11.415Z,81.80
2018-04-17T04:17:51.201Z,81.70
2018-04-17T04:20:30.716Z,81.80
2018-04-17T04:23:10.293Z,82.50
2018-04-17T04:28:44.139Z,81.50
2018-04-17T04:31:11.905Z,81.50
2018-04-17T04:33:39.740Z,81.40
2018-04-17T04:36:07.512Z,81.70
2018-04-17T04:38:36.022Z,81.30
2018-04-17T04:41:03.828Z,81.30
2018-04-17T04:43:31.600Z,82.50
2018-04-17T04:45:59.822Z,82.90
2018-04-17T04:48:27.595Z,83.00
2018-04-17T04:50:55.401Z,83.20
2018-04-17T04:53:23.949Z,82.00
2018-04-17T04:55:51.706Z,81.90
2018-04-17T04:58:19.504Z,81.70
2018-04-17T05:00:47.256Z,81.90
2018-04-17T05:03:15.116Z,81.90
2018-04-17T05:05:42.887Z,81.80
2018-04-17T05:08:10.775Z,81.80
2018-04-17T05:10:38.535Z,82.40
2018-04-17T05:13:06.376Z,79.70
2018-04-17T05:15:34.154Z,78.00
2018-04-17T05:18:01.913Z,78.70
2018-04-17T05:20:29.680Z,75.50
2018-04-17T05:22:57.419Z,71.30
2018-04-17T05:25:26.008Z,65.90
2018-04-17T05:27:53.769Z,65.90
2018-04-17T05:30:21.511Z,63.90
2018-04-17T05:32:50.080Z,59.20
2018-04-17T05:35:17.904Z,59.00
2018-04-17T05:37:45.714Z,59.50
2018-04-17T05:40:13.775Z,57.00
2018-04-17T05:42:41.544Z,55.90
2018-04-17T05:45:09.355Z,52.00
2018-04-17T05:47:37.135Z,53.50
2018-04-17T05:50:04.886Z,55.30
2018-04-17T05:52:32.826Z,57.70
2018-04-17T05:55:01.410Z,59.60
2018-04-17T05:57:31.602Z,59.20
2018-04-17T05:59:59.354Z,59.20
2018-04-17T06:02:27.106Z,59.70
2018-04-17T06:04:55.763Z,60.00
2018-04-17T06:07:24.381Z,59.60
2018-04-17T06:09:52.352Z,59.60
2018-04-17T06:12:20.547Z,58.00
2018-04-17T06:14:48.523Z,58.00
2018-04-17T06:17:16.338Z,57.40
2018-04-17T06:19:44.089Z,53.90
2018-04-17T06:22:12.660Z,46.80
2018-04-17T06:24:41.201Z,44.70
2018-04-17T06:27:09.045Z,44.30
2018-04-17T06:29:36.854Z,44.50
2018-04-17T06:32:04.613Z,44.60
2018-04-17T06:34:32.384Z,43.60
2018-04-17T06:37:00.176Z,45.60
2018-04-17T06:39:28.798Z,45.90
2018-04-17T06:41:56.630Z,45.80
2018-04-17T06:44:24.390Z,45.50
2018-04-17T06:46:52.156Z,44.20
2018-04-17T06:49:21.123Z,42.70
2018-04-17T06:51:48.882Z,42.70
2018-04-17T06:54:16.629Z,42.90
2018-04-17T06:56:44.432Z,44.30
2018-04-17T06:59:12.242Z,45.30
2018-04-17T07:01:40.636Z,47.40
2018-04-17T07:04:08.591Z,48.10
2018-04-17T07:06:36.394Z,47.50
2018-04-17T07:09:04.296Z,47.90
2018-04-17T07:11:32.863Z,47.50
2018-04-17T07:14:00.650Z,47.50
2018-04-17T07:16:29.167Z,47.60
2018-04-17T07:18:57.001Z,47.60
2018-04-17T07:21:25.580Z,46.90
2018-04-17T07:23:54.093Z,48.00
2018-04-17T07:26:21.879Z,47.90
2018-04-17T07:28:49.636Z,49.60
2018-04-17T07:31:17.412Z,48.70
2018-04-17T07:33:45.166Z,46.80
2018-04-17T07:36:13.162Z,43.30
2018-04-17T07:38:40.894Z,41.10
2018-04-17T07:41:08.705Z,40.10
2018-04-17T07:43:36.552Z,40.10
2018-04-17T07:46:04.368Z,40.30
2018-04-17T07:48:44.093Z,42.50
2018-04-17T07:51:12.690Z,41.90
2018-04-17T07:53:41.392Z,40.70
2018-04-17T07:56:09.173Z,40.60
2018-04-17T07:58:36.917Z,41.10
2018-04-17T08:01:04.720Z,40.60
2018-04-17T08:03:32.477Z,38.30
2018-04-17T08:06:00.318Z,38.70
2018-04-17T08:08:28.195Z,39.80
2018-04-17T08:10:56.009Z,39.10
2018-04-17T08:13:23.760Z,38.40
2018-04-17T08:15:51.489Z,39.10
2018-04-17T08:18:19.290Z,40.10
2018-04-17T08:20:47.031Z,40.40
2018-04-17T08:23:14.820Z,39.20
2018-04-17T08:25:42.646Z,40.60
2018-04-17T08:28:10.827Z,40.80
2018-04-17T08:30:38.640Z,39.90
2018-04-17T08:33:06.400Z,39.30
2018-04-17T08:35:34.270Z,42.10
2018-04-17T08:38:02.073Z,44.40
2018-04-17T08:40:29.851Z,45.60
2018-04-17T08:42:57.613Z,44.70
2018-04-17T08:45:25.407Z,44.30
2018-04-17T08:47:53.216Z,42.70
2018-04-17T08:50:21.891Z,40.50
2018-04-17T08:52:49.710Z,40.60
2018-04-17T08:55:17.458Z,42.10
2018-04-17T08:57:45.334Z,43.10
2018-04-17T09:00:13.109Z,42.50
2018-04-17T09:02:41.014Z,39.00
2018-04-17T09:05:18.594Z,42.50
2018-04-17T09:07:48.676Z,39.80
2018-04-17T09:10:17.352Z,42.60
2018-04-17T09:12:45.137Z,42.50
2018-04-17T09:15:12.966Z,43.10
2018-04-17T09:17:41.555Z,48.50
2018-04-17T09:20:10.743Z,48.00
2018-04-17T09:22:38.655Z,48.30
2018-04-17T09:25:07.516Z,48.30
2018-04-17T09:27:36.196Z,46.40
2018-04-17T09:30:04.784Z,46.20
2018-04-17T09:32:33.462Z,46.50
2018-04-17T09:35:02.043Z,48.10
2018-04-17T09:37:30.650Z,46.40
2018-04-17T09:39:58.438Z,46.50
2018-04-17T09:42:26.198Z,46.90
2018-04-17T09:44:54.025Z,47.30
2018-04-17T09:47:22.566Z,44.80
2018-04-17T09:49:50.929Z,44.00
2018-04-17T09:52:18.804Z,45.20
2018-04-17T09:54:46.560Z,46.30
2018-04-17T09:57:14.432Z,47.90
2018-04-17T09:59:42.224Z,46.80
2018-04-17T10:02:10.034Z,47.90
2018-04-17T10:04:37.859Z,45.40
2018-04-17T10:07:05.639Z,40.90
2018-04-17T10:09:34.192Z,41.90
2018-04-17T10:12:01.951Z,41.90
2018-04-17T10:14:29.846Z,44.00
2018-04-17T10:16:57.654Z,44.30
2018-04-17T10:19:25.484Z,45.10
2018-04-17T10:21:53.433Z,45.20
2018-04-17T10:24:21.190Z,43.90
2018-04-17T10:26:48.952Z,42.40
2018-04-17T10:29:17.523Z,44.50
2018-04-17T10:31:45.315Z,44.40
2018-04-17T10:34:13.110Z,43.70
2018-04-17T10:36:41.666Z,43.70
2018-04-17T10:39:09.517Z,43.60
2018-04-17T10:41:37.276Z,43.50
2018-04-17T10:44:05.070Z,43.50
2018-04-17T10:46:32.915Z,44.10
2018-04-17T10:49:01.157Z,41.60
2018-04-17T10:51:28.924Z,42.60
2018-04-17T10:53:56.680Z,41.40
2018-04-17T10:56:24.464Z,43.70
2018-04-17T10:58:52.227Z,44.50
2018-04-17T11:01:20.143Z,40.10
2018-04-17T11:03:48.741Z,41.00
2018-04-17T11:06:17.301Z,40.20
2018-04-17T11:08:45.080Z,40.40
2018-04-17T11:11:12.829Z,41.40
2018-04-17T11:13:40.674Z,41.10
2018-04-17T11:16:08.437Z,41.10
2018-04-17T11:18:36.223Z,42.50
2018-04-17T11:21:03.962Z,43.30
2018-04-17T11:23:31.758Z,42.60
2018-04-17T11:25:59.596Z,41.30
2018-04-17T11:28:27.367Z,43.00
2018-04-17T11:30:55.128Z,41.20
2018-04-17T11:33:22.913Z,42.20
2018-04-17T11:35:50.775Z,41.20
2018-04-17T11:38:18.507Z,43.50
2018-04-17T11:40:46.824Z,42.50
2018-04-17T11:43:14.563Z,40.60
2018-04-17T11:45:42.296Z,42.50
2018-04-17T11:48:11.684Z,41.50
2018-04-17T11:50:40.222Z,40.10
2018-04-17T11:53:08.059Z,39.80
2018-04-17T11:55:35.873Z,40.50
2018-04-17T11:58:03.680Z,40.80
2018-04-17T12:00:31.541Z,41.70
2018-04-17T12:03:00.057Z,39.30
2018-04-17T12:05:27.939Z,39.30
2018-04-17T12:07:55.735Z,41.20
2018-04-17T12:10:23.738Z,39.40
2018-04-17T12:12:51.543Z,39.00
2018-04-17T12:15:19.343Z,40.20
2018-04-17T12:17:47.137Z,39.50
2018-04-17T12:20:14.895Z,41.20
2018-04-17T12:22:42.775Z,39.60
2018-04-17T12:25:10.584Z,39.60
2018-04-17T12:27:39.580Z,39.30
2018-04-17T12:30:08.146Z,38.30
2018-04-17T12:32:36.044Z,38.60
2018-04-17T12:35:03.871Z,38.40
2018-04-17T12:37:31.621Z,39.10
2018-04-17T12:39:59.467Z,38.10
2018-04-17T12:42:27.664Z,40.30
2018-04-17T12:44:57.364Z,39.20
2018-04-17T12:47:28.309Z,38.30
2018-04-17T12:49:56.365Z,38.40
2018-04-17T12:52:25.079Z,40.40
2018-04-17T12:54:53.481Z,40.10
2018-04-17T12:57:23.300Z,40.50
2018-04-17T12:59:51.553Z,39.20
2018-04-17T13:02:25.514Z,39.20
2018-04-17T13:04:56.584Z,40.30
2018-04-17T13:07:26.698Z,39.10
2018-04-17T13:09:57.529Z,39.50
2018-04-17T13:12:26.481Z,38.10
2018-04-17T13:14:55.267Z,40.10
2018-04-17T13:17:23.047Z,40.20
2018-04-17T13:19:52.170Z,41.20
2018-04-17T13:22:21.665Z,40.10
2018-04-17T13:24:50.957Z,37.40
2018-04-17T13:27:18.826Z,40.50
2018-04-17T13:29:46.657Z,39.70
2018-04-17T13:32:15.145Z,38.50
2018-04-17T13:34:43.019Z,36.30
2018-04-17T13:37:10.837Z,37.50
2018-04-17T13:39:43.784Z,41.60
2018-04-17T13:42:13.553Z,41.10
2018-04-17T13:44:42.352Z,38.40
2018-04-17T13:47:10.208Z,38.30
2018-04-17T13:49:38.661Z,39.40
2018-04-17T13:52:07.428Z,40.00
2018-04-17T13:54:36.350Z,40.00
2018-04-17T13:57:04.130Z,40.10
2018-04-17T13:59:31.886Z,36.50
2018-04-17T14:01:59.790Z,37.40
2018-04-17T14:04:27.546Z,38.80
2018-04-17T14:06:55.322Z,38.50
2018-04-17T14:09:23.101Z,38.90
2018-04-17T14:11:51.081Z,38.00
2018-04-17T14:14:18.931Z,39.10
2018-04-17T14:16:46.744Z,39.80
2018-04-17T14:19:17.786Z,40.90
2018-04-17T14:21:45.536Z,41.00
2018-04-17T14:24:14.382Z,39.50
2018-04-17T14:26:43.106Z,39.60
2018-04-17T14:29:11.683Z,41.70
2018-04-17T14:31:39.794Z,41.90
2018-04-17T14:34:07.551Z,39.50
2018-04-17T14:36:35.438Z,40.80
2018-04-17T14:39:03.387Z,40.40
2018-04-17T14:41:32.117Z,40.90
2018-04-17T14:43:59.942Z,41.00
2018-04-17T14:46:27.741Z,39.40
2018-04-17T14:48:55.538Z,41.90
2018-04-17T14:51:23.296Z,41.10
2018-04-17T14:53:51.186Z,39.30
2018-04-17T14:56:19.714Z,39.80
2018-04-17T14:58:47.491Z,39.70
2018-04-17T15:01:15.620Z,40.30
2018-04-17T15:03:44.129Z,38.30
2018-04-17T15:06:12.391Z,38.10
2018-04-17T15:08:40.432Z,42.00
2018-04-17T15:11:08.457Z,40.90
2018-04-17T15:13:36.195Z,41.10
2018-04-17T15:16:05.323Z,40.80
2018-04-17T15:18:33.082Z,40.80
2018-04-17T15:21:02.501Z,42.30
2018-04-17T15:23:32.563Z,42.50
2018-04-17T15:26:05.873Z,42.20
2018-04-17T15:28:48.644Z,42.10
2018-04-17T15:31:17.257Z,43.10
2018-04-17T15:33:45.826Z,41.80
2018-04-17T15:36:16.377Z,43.10
2018-04-17T15:38:45.443Z,40.20
2018-04-17T15:41:13.288Z,41.00
2018-04-17T15:43:41.077Z,40.90
2018-04-17T15:46:08.888Z,43.10
2018-04-17T15:48:36.721Z,42.30
2018-04-17T15:51:04.576Z,43.30
2018-04-17T15:53:32.841Z,44.00
2018-04-17T15:56:03.320Z,43.80
2018-04-17T15:58:31.126Z,43.10
2018-04-17T16:00:58.944Z,44.20
2018-04-17T16:03:28.636Z,42.40
2018-04-17T16:05:57.600Z,42.60
2018-04-17T16:08:25.369Z,42.50
2018-04-17T16:10:53.188Z,43.00
2018-04-17T16:13:22.951Z,43.30
2018-04-17T16:15:50.932Z,42.90
2018-04-17T16:18:19.567Z,43.10
2018-04-17T16:20:47.351Z,44.20
2018-04-17T16:23:15.145Z,44.50
2018-04-17T16:25:44.919Z,41.90
2018-04-17T16:28:13.070Z,42.50
2018-04-17T16:30:42.425Z,44.00
2018-04-17T16:33:10.293Z,44.30
2018-04-17T16:35:38.230Z,45.40
2018-04-17T16:38:06.411Z,44.80
2018-04-17T16:40:34.718Z,44.60
2018-04-17T16:43:02.533Z,44.60
2018-04-17T16:45:31.271Z,43.90
2018-04-17T16:47:59.084Z,43.40
2018-04-17T16:50:26.870Z,45.10
2018-04-17T16:52:55.121Z,45.00
2018-04-17T16:55:22.970Z,45.00
2018-04-17T16:57:50.919Z,44.80
2018-04-17T17:00:19.351Z,45.80
2018-04-17T17:02:47.973Z,46.40
2018-04-17T17:05:15.869Z,46.50
2018-04-17T17:07:44.414Z,48.20
2018-04-17T17:10:13.154Z,48.20
2018-04-17T17:12:40.910Z,46.60
2018-04-17T17:15:08.683Z,46.10
2018-04-17T17:17:36.539Z,46.10
2018-04-17T17:20:04.347Z,47.00
2018-04-17T17:22:32.182Z,46.80
2018-04-17T17:24:59.976Z,46.60
2018-04-17T17:27:27.782Z,46.50
2018-04-17T17:29:56.516Z,49.40
2018-04-17T17:32:24.285Z,49.40
2018-04-17T17:34:52.047Z,49.50
2018-04-17T17:37:19.910Z,49.00
2018-04-17T17:39:47.695Z,48.50
2018-04-17T17:42:15.536Z,48.10
2018-04-17T17:44:43.313Z,48.00
2018-04-17T17:47:12.759Z,49.30
2018-04-17T17:49:42.757Z,50.10
2018-04-17T17:52:13.432Z,50.00
2018-04-17T17:54:42.471Z,52.10
2018-04-17T17:57:10.261Z,50.30
2018-04-17T17:59:38.814Z,51.40
2018-04-17T18:02:06.652Z,51.40
2018-04-17T18:04:34.492Z,51.90
2018-04-17T18:07:02.653Z,51.80
2018-04-17T18:09:30.495Z,52.60
2018-04-17T18:11:58.343Z,54.00
2018-04-17T18:14:27.240Z,54.20
2018-04-17T18:16:56.014Z,55.40
2018-04-17T18:19:24.253Z,55.50
2018-04-17T18:24:37.545Z,56.40
2018-04-17T18:27:05.297Z,58.80
2018-04-17T18:29:33.830Z,59.80
2018-04-17T18:32:01.640Z,59.90
2018-04-17T18:34:29.427Z,60.00
2018-04-17T18:36:57.244Z,60.50
2018-04-17T18:39:24.978Z,60.70
2018-04-17T18:41:54.238Z,59.80
2018-04-17T18:44:22.488Z,59.80
2018-04-17T18:46:51.848Z,62.30
2018-04-17T18:49:19.644Z,61.70
2018-04-17T18:51:48.538Z,62.50
2018-04-17T18:54:17.610Z,62.30
2018-04-17T18:56:46.386Z,62.50
2018-04-17T18:59:15.702Z,62.40
2018-04-17T19:01:43.832Z,62.50
2018-04-17T19:04:14.492Z,62.30
2018-04-17T19:06:42.514Z,62.70
2018-04-17T19:09:11.825Z,61.50
2018-04-17T19:11:40.504Z,65.00
2018-04-17T19:14:09.189Z,65.00
2018-04-17T19:16:38.747Z,65.30
2018-04-17T19:19:06.828Z,65.30
2018-04-17T19:21:35.732Z,65.50
2018-04-17T19:24:04.504Z,66.10
2018-04-17T19:26:32.465Z,66.10
2018-04-17T19:29:02.403Z,66.70
2018-04-17T19:31:31.080Z,66.60
2018-04-17T19:34:00.126Z,67.20
2018-04-17T19:36:28.784Z,64.80
2018-04-17T19:39:03.010Z,64.80
2018-04-17T19:41:31.884Z,66.90
2018-04-17T19:43:59.787Z,66.20
2018-04-17T19:46:28.278Z,66.00
2018-04-17T19:49:01.406Z,65.50
2018-04-17T19:51:30.144Z,67.70
2018-04-17T19:53:58.886Z,65.20
2018-04-17T19:56:26.712Z,65.20
2018-04-17T19:58:54.454Z,67.50
2018-04-17T20:01:23.060Z,67.90
2018-04-17T20:03:50.884Z,67.80
2018-04-17T20:06:18.802Z,66.70
2018-04-17T20:08:46.566Z,66.60
2018-04-17T20:11:14.343Z,67.60
2018-04-17T20:13:42.216Z,67.80
2018-04-17T20:16:10.091Z,67.70
2018-04-17T20:18:37.957Z,68.00
2018-04-17T20:21:05.697Z,68.60
2018-04-17T20:23:33.534Z,69.20
2018-04-17T20:26:04.583Z,70.00
2018-04-17T20:28:36.965Z,68.50
2018-04-17T20:31:05.684Z,69.40
2018-04-17T20:33:34.107Z,69.20
2018-04-17T20:36:04.064Z,69.80
2018-04-17T20:38:31.981Z,70.90
2018-04-17T20:41:02.857Z,71.00
2018-04-17T20:43:31.557Z,70.90
2018-04-17T20:46:01.481Z,71.00
2018-04-17T20:48:32.777Z,70.80
2018-04-17T20:51:02.234Z,70.70
2018-04-17T20:53:30.115Z,70.40
2018-04-17T20:55:59.610Z,69.90
2018-04-17T20:58:28.920Z,70.20
2018-04-17T21:00:57.483Z,69.60
2018-04-17T21:03:27.447Z,69.50
2018-04-17T21:05:57.386Z,69.70
2018-04-17T21:08:29.071Z,70.40
2018-04-17T21:11:00.789Z,71.90
2018-04-17T21:13:29.855Z,71.50
2018-04-17T21:15:59.867Z,71.80
2018-04-17T21:18:27.828Z,71.80
2018-04-17T21:20:56.470Z,71.50
2018-04-17T21:23:24.767Z,71.40
2018-04-17T21:25:52.584Z,71.50
2018-04-17T21:28:20.363Z,71.20
2018-04-17T21:30:48.272Z,70.90
2018-04-17T21:33:16.081Z,71.20
2018-04-17T21:35:43.836Z,71.90
2018-04-17T21:38:12.560Z,72.10
2018-04-17T21:40:40.333Z,71.40
2018-04-17T21:43:08.116Z,71.80
2018-04-17T21:45:35.903Z,71.50
2018-04-17T21:48:04.470Z,71.70
2018-04-17T21:50:32.233Z,72.50
2018-04-17T21:53:00.103Z,72.10
2018-04-17T21:55:28.323Z,72.10
2018-04-17T21:57:56.076Z,72.30
2018-04-17T22:00:24.643Z,72.80
2018-04-17T22:02:53.211Z,73.30
2018-04-17T22:05:20.992Z,73.30
2018-04-17T22:07:49.628Z,73.70
2018-04-17T22:10:17.420Z,73.70
2018-04-17T22:12:45.269Z,73.30
2018-04-17T22:15:13.116Z,73.00
2018-04-17T22:17:40.886Z,72.90
2018-04-17T22:20:08.733Z,73.10
2018-04-17T22:22:36.540Z,73.50
2018-04-17T22:25:04.873Z,73.40
2018-04-17T22:27:32.738Z,73.30
2018-04-17T22:30:01.251Z,73.90
2018-04-17T22:32:29.045Z,73.90
2018-04-17T22:34:56.808Z,73.70
2018-04-17T22:37:24.816Z,74.20
2018-04-17T22:39:53.398Z,74.90
2018-04-17T22:42:21.971Z,75.40
2018-04-17T22:44:50.104Z,75.30
2018-04-17T22:47:18.263Z,75.20
2018-04-17T22:49:46.053Z,74.90
2018-04-17T22:52:13.856Z,75.10
2018-04-17T22:54:42.480Z,75.10
2018-04-17T22:57:10.280Z,75.10
2018-04-17T22:59:38.120Z,75.80
2018-04-17T23:02:05.886Z,75.50
2018-04-17T23:04:33.677Z,75.20
2018-04-17T23:07:01.435Z,75.20
2018-04-17T23:09:29.659Z,74.50
2018-04-17T23:11:58.175Z,76.20
2018-04-17T23:14:25.933Z,76.20
2018-04-17T23:16:53.750Z,75.80
2018-04-17T23:19:22.302Z,75.50
2018-04-17T23:21:50.097Z,75.40
2018-04-17T23:24:17.919Z,75.40
2018-04-17T23:26:45.740Z,76.10
2018-04-17T23:29:14.330Z,75.70
2018-04-17T23:31:42.877Z,75.90
2018-04-17T23:34:10.766Z,75.90
2018-04-17T23:36:39.368Z,76.40
2018-04-17T23:39:07.912Z,75.40
2018-04-17T23:41:35.666Z,75.40
2018-04-17T23:44:03.453Z,75.40
2018-04-17T23:46:31.207Z,76.30
2018-04-17T23:48:58.995Z,75.70
2018-04-17T23:51:27.521Z,76.00
2018-04-17T23:53:55.323Z,76.00
2018-04-17T23:56:23.091Z,76.30
2018-04-17T23:58:50.950Z,76.20
